Skip Navigation Links Skip Navigation Links

Current Weather

Greater Rockford, Rockford, Ill.

For information only: do not use for flight planning or navigation.
Latest weather
Observation time Sunday, May 26, 2019 9:54 AM CDT
Local time Sunday, May 26, 2019 10:36 AM CDT
Flight conditions Visual Meteorological Conditions
Winds
Wind direction East-Northeast (60°)
Wind speed 8 mph
Visibility 10 mi.
Sky condition
Ceiling 3,000 ft. broken clouds
Cloud layer broken clouds 3,000 ft.
Cloud layer overcast 6,000 ft.
Temperature 65°F
Dewpoint 53°F
Altimeter 30.05 in.Hg
Pressure change last 3 hours-0.01 in.Hg
Pressure rising more quickly
Derived measurements
Relative humidity 65%
Density altitude 1176 ft.
Sea-level pressure 30.04 in.Hg
Remarks
System requires maintenance.
Automated weather observing station with precipitation discriminator.
METAR KRFD 261454Z 06007KT 10SM BKN030 OVC060 18/12 A3005 RMK AO2 SLP173 T01830117 53005 $

Settings

Location code

InnerDrive.Weather 4.0.6770.0 Release CLR 4.0.30319.42000
Copyright ©2018 Inner Drive Technology. All rights reserved. Portions Copyright ©1986-2018 David Braverman.

Find weather

Site navigation


Skip Navigation Links

Place info

Page info

PayPal - The safer, easier way to pay online!

Return home.

Copyright ©2019 Inner Drive Technology. Purveyors of fine, hand-crafted computer software. Page printed 2019-05-26T15:36:43 UTC.